sensor_id;sensor_type;location;lat;lon;timestamp;temperature;humidity
8188;DHT22;4135;49.184;9.722;2023-04-25T00:00:14;20.90;50.80
8188;DHT22;4135;49.184;9.722;2023-04-25T00:02:44;20.90;50.80
8188;DHT22;4135;49.184;9.722;2023-04-25T00:05:13;20.90;50.80
8188;DHT22;4135;49.184;9.722;2023-04-25T00:07:44;20.90;50.80
8188;DHT22;4135;49.184;9.722;2023-04-25T00:10:14;20.90;50.80
8188;DHT22;4135;49.184;9.722;2023-04-25T00:12:43;20.90;50.80
8188;DHT22;4135;49.184;9.722;2023-04-25T00:15:13;20.90;50.80
8188;DHT22;4135;49.184;9.722;2023-04-25T00:17:43;20.90;50.80
8188;DHT22;4135;49.184;9.722;2023-04-25T00:20:12;20.90;50.80
8188;DHT22;4135;49.184;9.722;2023-04-25T00:22:42;20.90;50.80
8188;DHT22;4135;49.184;9.722;2023-04-25T00:25:11;20.90;50.90
8188;DHT22;4135;49.184;9.722;2023-04-25T00:27:41;20.90;50.80
8188;DHT22;4135;49.184;9.722;2023-04-25T00:30:11;20.90;50.80
8188;DHT22;4135;49.184;9.722;2023-04-25T00:32:41;20.90;50.80
8188;DHT22;4135;49.184;9.722;2023-04-25T00:35:11;20.90;50.80
8188;DHT22;4135;49.184;9.722;2023-04-25T00:37:40;20.90;50.90
8188;DHT22;4135;49.184;9.722;2023-04-25T00:40:10;20.90;50.80
8188;DHT22;4135;49.184;9.722;2023-04-25T00:42:40;20.90;50.80
8188;DHT22;4135;49.184;9.722;2023-04-25T00:45:13;20.90;50.90
8188;DHT22;4135;49.184;9.722;2023-04-25T00:47:44;20.90;50.80
8188;DHT22;4135;49.184;9.722;2023-04-25T00:50:13;20.90;50.80
8188;DHT22;4135;49.184;9.722;2023-04-25T00:52:44;20.90;50.80
8188;DHT22;4135;49.184;9.722;2023-04-25T00:55:14;20.90;50.90
8188;DHT22;4135;49.184;9.722;2023-04-25T00:57:45;20.90;50.80
8188;DHT22;4135;49.184;9.722;2023-04-25T01:00:14;20.90;50.90
8188;DHT22;4135;49.184;9.722;2023-04-25T01:02:45;20.80;50.80
8188;DHT22;4135;49.184;9.722;2023-04-25T01:05:14;20.90;50.80
8188;DHT22;4135;49.184;9.722;2023-04-25T01:07:44;20.90;50.80
8188;DHT22;4135;49.184;9.722;2023-04-25T01:10:14;20.80;50.80
8188;DHT22;4135;49.184;9.722;2023-04-25T01:12:44;20.90;50.80
8188;DHT22;4135;49.184;9.722;2023-04-25T01:15:14;20.90;50.80
8188;DHT22;4135;49.184;9.722;2023-04-25T01:17:43;20.90;50.80
8188;DHT22;4135;49.184;9.722;2023-04-25T01:20:14;20.80;50.70
8188;DHT22;4135;49.184;9.722;2023-04-25T01:22:43;20.80;50.80
8188;DHT22;4135;49.184;9.722;2023-04-25T01:25:13;20.90;50.80
8188;DHT22;4135;49.184;9.722;2023-04-25T01:27:43;20.80;50.80
8188;DHT22;4135;49.184;9.722;2023-04-25T01:30:13;20.80;50.70
8188;DHT22;4135;49.184;9.722;2023-04-25T01:32:43;20.90;50.80
8188;DHT22;4135;49.184;9.722;2023-04-25T01:35:12;20.80;50.70
8188;DHT22;4135;49.184;9.722;2023-04-25T01:37:43;20.90;50.90
8188;DHT22;4135;49.184;9.722;2023-04-25T01:40:13;20.80;50.80
8188;DHT22;4135;49.184;9.722;2023-04-25T01:42:43;20.80;50.80
8188;DHT22;4135;49.184;9.722;2023-04-25T01:45:13;20.80;50.70
8188;DHT22;4135;49.184;9.722;2023-04-25T01:47:42;20.80;50.80
8188;DHT22;4135;49.184;9.722;2023-04-25T01:50:12;20.80;50.80
8188;DHT22;4135;49.184;9.722;2023-04-25T01:52:42;20.80;50.80
8188;DHT22;4135;49.184;9.722;2023-04-25T01:55:12;20.80;50.70
8188;DHT22;4135;49.184;9.722;2023-04-25T01:57:41;20.80;50.80
8188;DHT22;4135;49.184;9.722;2023-04-25T02:00:11;20.80;50.80
8188;DHT22;4135;49.184;9.722;2023-04-25T02:02:41;20.80;50.70
8188;DHT22;4135;49.184;9.722;2023-04-25T02:05:10;20.80;50.70
8188;DHT22;4135;49.184;9.722;2023-04-25T02:07:40;20.80;50.80
8188;DHT22;4135;49.184;9.722;2023-04-25T02:10:10;20.80;50.70
8188;DHT22;4135;49.184;9.722;2023-04-25T02:12:39;20.80;50.70
8188;DHT22;4135;49.184;9.722;2023-04-25T02:15:09;20.80;50.70
8188;DHT22;4135;49.184;9.722;2023-04-25T02:17:38;20.80;50.70
8188;DHT22;4135;49.184;9.722;2023-04-25T02:20:08;20.80;50.70
8188;DHT22;4135;49.184;9.722;2023-04-25T02:22:39;20.80;50.70
8188;DHT22;4135;49.184;9.722;2023-04-25T02:25:09;20.80;50.70
8188;DHT22;4135;49.184;9.722;2023-04-25T02:27:39;20.80;50.70
8188;DHT22;4135;49.184;9.722;2023-04-25T02:30:09;20.80;50.70
8188;DHT22;4135;49.184;9.722;2023-04-25T02:32:39;20.80;50.70
8188;DHT22;4135;49.184;9.722;2023-04-25T02:35:09;20.80;50.70
8188;DHT22;4135;49.184;9.722;2023-04-25T02:37:40;20.80;50.70
8188;DHT22;4135;49.184;9.722;2023-04-25T02:40:09;20.80;50.70
8188;DHT22;4135;49.184;9.722;2023-04-25T02:42:39;20.80;50.60
8188;DHT22;4135;49.184;9.722;2023-04-25T02:45:09;20.80;50.60
8188;DHT22;4135;49.184;9.722;2023-04-25T02:47:39;20.80;50.60
8188;DHT22;4135;49.184;9.722;2023-04-25T02:50:08;20.80;50.60
8188;DHT22;4135;49.184;9.722;2023-04-25T02:52:38;20.80;50.60
8188;DHT22;4135;49.184;9.722;2023-04-25T02:55:08;20.80;50.70
8188;DHT22;4135;49.184;9.722;2023-04-25T02:57:37;20.80;50.70
8188;DHT22;4135;49.184;9.722;2023-04-25T03:00:07;20.80;50.70
8188;DHT22;4135;49.184;9.722;2023-04-25T03:02:37;20.80;50.70
8188;DHT22;4135;49.184;9.722;2023-04-25T03:05:06;20.80;50.70
8188;DHT22;4135;49.184;9.722;2023-04-25T03:07:36;20.80;50.80
8188;DHT22;4135;49.184;9.722;2023-04-25T03:10:07;20.80;50.70
8188;DHT22;4135;49.184;9.722;2023-04-25T03:12:36;20.80;50.80
8188;DHT22;4135;49.184;9.722;2023-04-25T03:15:06;20.80;50.80
8188;DHT22;4135;49.184;9.722;2023-04-25T03:17:36;20.80;50.80
8188;DHT22;4135;49.184;9.722;2023-04-25T03:20:06;20.80;50.80
8188;DHT22;4135;49.184;9.722;2023-04-25T03:22:37;20.80;50.80
8188;DHT22;4135;49.184;9.722;2023-04-25T03:25:07;20.80;50.80
8188;DHT22;4135;49.184;9.722;2023-04-25T03:27:37;20.80;50.80
8188;DHT22;4135;49.184;9.722;2023-04-25T03:30:06;20.80;50.80
8188;DHT22;4135;49.184;9.722;2023-04-25T03:32:37;20.80;50.80
8188;DHT22;4135;49.184;9.722;2023-04-25T03:35:07;20.80;50.80
8188;DHT22;4135;49.184;9.722;2023-04-25T03:37:36;20.80;50.80
8188;DHT22;4135;49.184;9.722;2023-04-25T03:40:06;20.90;50.90
8188;DHT22;4135;49.184;9.722;2023-04-25T03:42:36;20.80;50.80
8188;DHT22;4135;49.184;9.722;2023-04-25T03:45:06;20.80;50.80
8188;DHT22;4135;49.184;9.722;2023-04-25T03:47:35;20.80;50.80
8188;DHT22;4135;49.184;9.722;2023-04-25T03:50:05;20.80;51.40
8188;DHT22;4135;49.184;9.722;2023-04-25T03:52:35;21.20;51.10
8188;DHT22;4135;49.184;9.722;2023-04-25T03:55:05;20.80;50.80
8188;DHT22;4135;49.184;9.722;2023-04-25T03:57:35;20.80;50.70
8188;DHT22;4135;49.184;9.722;2023-04-25T04:00:05;20.80;50.80
8188;DHT22;4135;49.184;9.722;2023-04-25T04:02:35;20.80;50.70
8188;DHT22;4135;49.184;9.722;2023-04-25T04:05:06;20.80;50.70
8188;DHT22;4135;49.184;9.722;2023-04-25T04:07:36;20.80;50.70
8188;DHT22;4135;49.184;9.722;2023-04-25T04:10:09;20.80;50.70
8188;DHT22;4135;49.184;9.722;2023-04-25T04:12:39;20.80;50.70
8188;DHT22;4135;49.184;9.722;2023-04-25T04:15:09;20.70;50.60
8188;DHT22;4135;49.184;9.722;2023-04-25T04:17:39;20.80;50.70
8188;DHT22;4135;49.184;9.722;2023-04-25T04:20:10;20.80;50.70
8188;DHT22;4135;49.184;9.722;2023-04-25T04:22:40;20.80;50.70
8188;DHT22;4135;49.184;9.722;2023-04-25T04:25:09;20.80;50.70
8188;DHT22;4135;49.184;9.722;2023-04-25T04:27:40;20.80;50.70
8188;DHT22;4135;49.184;9.722;2023-04-25T04:30:10;20.80;50.70
8188;DHT22;4135;49.184;9.722;2023-04-25T04:32:40;20.80;50.70
8188;DHT22;4135;49.184;9.722;2023-04-25T04:35:09;20.80;50.70
8188;DHT22;4135;49.184;9.722;2023-04-25T04:37:40;20.80;50.60
8188;DHT22;4135;49.184;9.722;2023-04-25T04:40:10;20.80;50.70
8188;DHT22;4135;49.184;9.722;2023-04-25T04:42:39;20.80;50.60
8188;DHT22;4135;49.184;9.722;2023-04-25T04:45:10;20.80;50.60
8188;DHT22;4135;49.184;9.722;2023-04-25T04:47:40;20.70;50.60
8188;DHT22;4135;49.184;9.722;2023-04-25T04:50:10;20.70;50.60
8188;DHT22;4135;49.184;9.722;2023-04-25T04:52:39;20.70;50.60
8188;DHT22;4135;49.184;9.722;2023-04-25T04:55:09;20.70;50.60
8188;DHT22;4135;49.184;9.722;2023-04-25T04:57:38;20.70;50.60
8188;DHT22;4135;49.184;9.722;2023-04-25T05:00:10;20.70;50.60
8188;DHT22;4135;49.184;9.722;2023-04-25T05:02:40;20.70;50.60
8188;DHT22;4135;49.184;9.722;2023-04-25T05:05:10;20.70;50.60
8188;DHT22;4135;49.184;9.722;2023-04-25T05:07:39;20.70;50.50
8188;DHT22;4135;49.184;9.722;2023-04-25T05:10:09;20.70;50.50
8188;DHT22;4135;49.184;9.722;2023-04-25T05:12:39;20.70;50.50
8188;DHT22;4135;49.184;9.722;2023-04-25T05:15:09;20.70;50.50
8188;DHT22;4135;49.184;9.722;2023-04-25T05:17:39;20.70;50.50
8188;DHT22;4135;49.184;9.722;2023-04-25T05:20:09;20.60;50.50
8188;DHT22;4135;49.184;9.722;2023-04-25T05:22:38;20.60;50.60
8188;DHT22;4135;49.184;9.722;2023-04-25T05:25:08;20.60;50.60
8188;DHT22;4135;49.184;9.722;2023-04-25T05:27:38;20.60;50.60
8188;DHT22;4135;49.184;9.722;2023-04-25T05:30:08;20.70;50.70
8188;DHT22;4135;49.184;9.722;2023-04-25T05:32:38;20.70;50.60
8188;DHT22;4135;49.184;9.722;2023-04-25T05:35:08;20.60;50.60
8188;DHT22;4135;49.184;9.722;2023-04-25T05:37:38;20.60;50.60
8188;DHT22;4135;49.184;9.722;2023-04-25T05:40:08;20.60;50.60
8188;DHT22;4135;49.184;9.722;2023-04-25T05:42:38;20.60;50.60
8188;DHT22;4135;49.184;9.722;2023-04-25T05:45:07;20.60;50.60
8188;DHT22;4135;49.184;9.722;2023-04-25T05:47:37;20.60;50.70
8188;DHT22;4135;49.184;9.722;2023-04-25T05:50:07;20.60;50.70
8188;DHT22;4135;49.184;9.722;2023-04-25T05:52:37;20.60;50.70
8188;DHT22;4135;49.184;9.722;2023-04-25T05:55:08;20.60;50.70
8188;DHT22;4135;49.184;9.722;2023-04-25T05:57:38;20.60;50.70
8188;DHT22;4135;49.184;9.722;2023-04-25T06:00:12;20.60;50.70
8188;DHT22;4135;49.184;9.722;2023-04-25T06:02:42;20.60;50.70
8188;DHT22;4135;49.184;9.722;2023-04-25T06:05:12;20.60;50.70
8188;DHT22;4135;49.184;9.722;2023-04-25T06:07:41;20.60;50.70
8188;DHT22;4135;49.184;9.722;2023-04-25T06:10:11;20.60;50.70
8188;DHT22;4135;49.184;9.722;2023-04-25T06:12:40;20.60;50.70
8188;DHT22;4135;49.184;9.722;2023-04-25T06:15:10;20.60;50.70
8188;DHT22;4135;49.184;9.722;2023-04-25T06:17:39;20.60;50.90
8188;DHT22;4135;49.184;9.722;2023-04-25T06:20:09;20.60;50.70
8188;DHT22;4135;49.184;9.722;2023-04-25T06:22:39;20.60;50.70
8188;DHT22;4135;49.184;9.722;2023-04-25T06:25:09;20.60;50.70
8188;DHT22;4135;49.184;9.722;2023-04-25T06:27:38;20.60;50.70
8188;DHT22;4135;49.184;9.722;2023-04-25T06:30:08;20.60;50.70
8188;DHT22;4135;49.184;9.722;2023-04-25T06:32:38;20.60;50.70
8188;DHT22;4135;49.184;9.722;2023-04-25T06:35:08;20.60;50.70
8188;DHT22;4135;49.184;9.722;2023-04-25T06:37:38;20.70;50.70
8188;DHT22;4135;49.184;9.722;2023-04-25T06:40:08;20.70;50.80
8188;DHT22;4135;49.184;9.722;2023-04-25T06:42:37;20.70;50.70
8188;DHT22;4135;49.184;9.722;2023-04-25T06:45:07;20.70;50.70
8188;DHT22;4135;49.184;9.722;2023-04-25T06:47:37;20.70;50.70
8188;DHT22;4135;49.184;9.722;2023-04-25T06:50:07;20.70;50.80
8188;DHT22;4135;49.184;9.722;2023-04-25T06:52:36;20.70;50.80
8188;DHT22;4135;49.184;9.722;2023-04-25T06:55:06;20.70;50.80
8188;DHT22;4135;49.184;9.722;2023-04-25T06:57:36;20.70;50.80
8188;DHT22;4135;49.184;9.722;2023-04-25T07:00:06;20.70;50.80
8188;DHT22;4135;49.184;9.722;2023-04-25T07:02:38;20.70;50.80
8188;DHT22;4135;49.184;9.722;2023-04-25T07:05:08;20.70;50.80
8188;DHT22;4135;49.184;9.722;2023-04-25T07:07:37;20.70;50.90
8188;DHT22;4135;49.184;9.722;2023-04-25T07:10:07;20.70;51.00
8188;DHT22;4135;49.184;9.722;2023-04-25T07:12:36;20.70;50.90
8188;DHT22;4135;49.184;9.722;2023-04-25T07:15:06;20.70;51.00
8188;DHT22;4135;49.184;9.722;2023-04-25T07:17:37;20.70;50.90
8188;DHT22;4135;49.184;9.722;2023-04-25T07:20:07;20.70;51.00
8188;DHT22;4135;49.184;9.722;2023-04-25T07:22:38;20.70;51.00
8188;DHT22;4135;49.184;9.722;2023-04-25T07:25:08;20.70;51.00
8188;DHT22;4135;49.184;9.722;2023-04-25T07:27:38;20.80;51.10
8188;DHT22;4135;49.184;9.722;2023-04-25T07:30:08;20.80;51.10
8188;DHT22;4135;49.184;9.722;2023-04-25T07:32:39;20.80;51.10
8188;DHT22;4135;49.184;9.722;2023-04-25T07:35:08;20.60;50.90
8188;DHT22;4135;49.184;9.722;2023-04-25T07:37:38;20.80;51.10
8188;DHT22;4135;49.184;9.722;2023-04-25T07:40:08;20.60;50.60
8188;DHT22;4135;49.184;9.722;2023-04-25T07:42:38;20.40;50.10
8188;DHT22;4135;49.184;9.722;2023-04-25T07:45:09;20.30;50.00
8188;DHT22;4135;49.184;9.722;2023-04-25T07:47:38;20.20;49.80
8188;DHT22;4135;49.184;9.722;2023-04-25T07:50:08;20.10;49.50
8188;DHT22;4135;49.184;9.722;2023-04-25T07:52:38;20.10;49.40
8188;DHT22;4135;49.184;9.722;2023-04-25T07:55:08;19.90;49.10
8188;DHT22;4135;49.184;9.722;2023-04-25T07:57:37;20.00;48.90
8188;DHT22;4135;49.184;9.722;2023-04-25T08:00:08;19.90;48.60
8188;DHT22;4135;49.184;9.722;2023-04-25T08:02:40;19.90;48.50
8188;DHT22;4135;49.184;9.722;2023-04-25T08:05:10;19.80;48.30
8188;DHT22;4135;49.184;9.722;2023-04-25T08:07:43;19.80;48.20
8188;DHT22;4135;49.184;9.722;2023-04-25T08:10:13;19.80;48.10
8188;DHT22;4135;49.184;9.722;2023-04-25T08:12:42;19.80;48.00
8188;DHT22;4135;49.184;9.722;2023-04-25T08:15:12;19.80;47.90
8188;DHT22;4135;49.184;9.722;2023-04-25T08:17:43;19.80;47.80
8188;DHT22;4135;49.184;9.722;2023-04-25T08:20:13;19.80;47.90
8188;DHT22;4135;49.184;9.722;2023-04-25T08:22:43;19.80;47.70
8188;DHT22;4135;49.184;9.722;2023-04-25T08:25:12;19.80;47.70
8188;DHT22;4135;49.184;9.722;2023-04-25T08:27:42;19.90;47.70
8188;DHT22;4135;49.184;9.722;2023-04-25T08:30:12;19.90;47.70
8188;DHT22;4135;49.184;9.722;2023-04-25T08:32:41;20.00;47.70
8188;DHT22;4135;49.184;9.722;2023-04-25T08:35:11;20.10;47.80
8188;DHT22;4135;49.184;9.722;2023-04-25T08:37:41;20.10;47.80
8188;DHT22;4135;49.184;9.722;2023-04-25T08:40:12;20.10;47.90
8188;DHT22;4135;49.184;9.722;2023-04-25T08:42:43;20.10;47.90
8188;DHT22;4135;49.184;9.722;2023-04-25T08:45:13;20.20;48.00
8188;DHT22;4135;49.184;9.722;2023-04-25T08:47:45;20.20;48.00
8188;DHT22;4135;49.184;9.722;2023-04-25T08:50:15;20.20;48.10
8188;DHT22;4135;49.184;9.722;2023-04-25T08:52:46;20.20;48.10
8188;DHT22;4135;49.184;9.722;2023-04-25T08:55:16;20.20;48.10
8188;DHT22;4135;49.184;9.722;2023-04-25T08:57:46;20.20;48.30
8188;DHT22;4135;49.184;9.722;2023-04-25T09:00:16;20.30;48.40
8188;DHT22;4135;49.184;9.722;2023-04-25T09:02:47;20.30;48.40
8188;DHT22;4135;49.184;9.722;2023-04-25T09:05:17;20.30;48.40
8188;DHT22;4135;49.184;9.722;2023-04-25T09:07:47;20.30;48.50
8188;DHT22;4135;49.184;9.722;2023-04-25T09:10:17;20.40;48.70
8188;DHT22;4135;49.184;9.722;2023-04-25T09:13:02;20.30;48.50
8188;DHT22;4135;49.184;9.722;2023-04-25T09:15:33;20.30;48.50
8188;DHT22;4135;49.184;9.722;2023-04-25T09:18:02;20.20;48.50
8188;DHT22;4135;49.184;9.722;2023-04-25T09:20:32;20.30;48.60
8188;DHT22;4135;49.184;9.722;2023-04-25T09:23:10;20.30;48.60
8188;DHT22;4135;49.184;9.722;2023-04-25T09:25:39;20.30;48.60
8188;DHT22;4135;49.184;9.722;2023-04-25T09:28:09;20.30;48.60
8188;DHT22;4135;49.184;9.722;2023-04-25T09:30:39;20.30;48.70
8188;DHT22;4135;49.184;9.722;2023-04-25T09:33:11;20.30;48.70
8188;DHT22;4135;49.184;9.722;2023-04-25T09:35:44;20.30;48.70
8188;DHT22;4135;49.184;9.722;2023-04-25T09:38:22;20.30;49.30
8188;DHT22;4135;49.184;9.722;2023-04-25T09:40:51;20.30;48.80
8188;DHT22;4135;49.184;9.722;2023-04-25T09:43:22;20.30;48.80
8188;DHT22;4135;49.184;9.722;2023-04-25T09:45:53;20.30;48.80
8188;DHT22;4135;49.184;9.722;2023-04-25T09:48:27;20.30;48.80
8188;DHT22;4135;49.184;9.722;2023-04-25T09:53:37;20.40;48.90
8188;DHT22;4135;49.184;9.722;2023-04-25T09:56:09;20.40;48.90
8188;DHT22;4135;49.184;9.722;2023-04-25T09:58:40;20.40;49.00
8188;DHT22;4135;49.184;9.722;2023-04-25T10:01:10;20.40;49.00
8188;DHT22;4135;49.184;9.722;2023-04-25T10:03:40;20.30;48.90
8188;DHT22;4135;49.184;9.722;2023-04-25T10:06:18;20.30;48.70
8188;DHT22;4135;49.184;9.722;2023-04-25T10:08:51;20.20;48.60
8188;DHT22;4135;49.184;9.722;2023-04-25T10:11:24;20.20;48.60
8188;DHT22;4135;49.184;9.722;2023-04-25T10:13:54;20.20;48.60
8188;DHT22;4135;49.184;9.722;2023-04-25T10:16:24;20.20;48.70
8188;DHT22;4135;49.184;9.722;2023-04-25T10:18:54;20.20;48.70
8188;DHT22;4135;49.184;9.722;2023-04-25T10:21:27;20.20;48.90
8188;DHT22;4135;49.184;9.722;2023-04-25T10:23:57;20.20;49.00
8188;DHT22;4135;49.184;9.722;2023-04-25T10:26:27;20.20;49.10
8188;DHT22;4135;49.184;9.722;2023-04-25T10:28:59;20.20;49.10
8188;DHT22;4135;49.184;9.722;2023-04-25T10:31:32;20.20;49.10
8188;DHT22;4135;49.184;9.722;2023-04-25T10:34:01;20.20;49.20
8188;DHT22;4135;49.184;9.722;2023-04-25T10:36:32;20.20;49.10
8188;DHT22;4135;49.184;9.722;2023-04-25T10:39:05;20.30;49.20
8188;DHT22;4135;49.184;9.722;2023-04-25T10:41:52;20.30;49.30
8188;DHT22;4135;49.184;9.722;2023-04-25T10:44:22;20.30;49.60
8188;DHT22;4135;49.184;9.722;2023-04-25T10:46:51;20.30;49.50
8188;DHT22;4135;49.184;9.722;2023-04-25T10:52:15;20.30;49.70
8188;DHT22;4135;49.184;9.722;2023-04-25T10:54:51;20.30;49.70
8188;DHT22;4135;49.184;9.722;2023-04-25T10:57:38;20.40;49.80
8188;DHT22;4135;49.184;9.722;2023-04-25T11:02:53;20.40;49.90
8188;DHT22;4135;49.184;9.722;2023-04-25T11:05:36;20.40;50.00
8188;DHT22;4135;49.184;9.722;2023-04-25T11:08:11;20.40;50.10
8188;DHT22;4135;49.184;9.722;2023-04-25T11:10:41;20.40;50.10
8188;DHT22;4135;49.184;9.722;2023-04-25T11:13:11;20.40;50.10
8188;DHT22;4135;49.184;9.722;2023-04-25T11:15:40;20.40;50.20
8188;DHT22;4135;49.184;9.722;2023-04-25T11:18:10;20.40;50.30
8188;DHT22;4135;49.184;9.722;2023-04-25T11:20:43;19.70;49.80
8188;DHT22;4135;49.184;9.722;2023-04-25T11:23:12;20.40;50.40
8188;DHT22;4135;49.184;9.722;2023-04-25T11:25:42;20.40;50.50
8188;DHT22;4135;49.184;9.722;2023-04-25T11:28:21;20.40;50.50
8188;DHT22;4135;49.184;9.722;2023-04-25T11:30:52;20.40;50.60
8188;DHT22;4135;49.184;9.722;2023-04-25T11:33:25;20.40;50.60
8188;DHT22;4135;49.184;9.722;2023-04-25T11:35:56;20.50;50.80
8188;DHT22;4135;49.184;9.722;2023-04-25T11:38:26;20.50;50.80
8188;DHT22;4135;49.184;9.722;2023-04-25T11:40:56;20.50;50.80
8188;DHT22;4135;49.184;9.722;2023-04-25T11:43:26;20.50;50.90
8188;DHT22;4135;49.184;9.722;2023-04-25T11:45:55;20.50;50.90
8188;DHT22;4135;49.184;9.722;2023-04-25T11:48:25;20.50;51.00
8188;DHT22;4135;49.184;9.722;2023-04-25T11:50:54;20.50;51.00
8188;DHT22;4135;49.184;9.722;2023-04-25T11:53:24;20.50;51.10
8188;DHT22;4135;49.184;9.722;2023-04-25T11:55:54;20.60;51.20
8188;DHT22;4135;49.184;9.722;2023-04-25T11:58:24;20.50;51.20
8188;DHT22;4135;49.184;9.722;2023-04-25T12:00:54;20.50;51.20
8188;DHT22;4135;49.184;9.722;2023-04-25T12:03:30;20.50;51.20
8188;DHT22;4135;49.184;9.722;2023-04-25T12:06:02;20.50;51.30
8188;DHT22;4135;49.184;9.722;2023-04-25T12:08:33;20.50;51.30
8188;DHT22;4135;49.184;9.722;2023-04-25T12:11:02;20.50;51.30
8188;DHT22;4135;49.184;9.722;2023-04-25T12:13:32;20.50;51.30
8188;DHT22;4135;49.184;9.722;2023-04-25T12:16:02;20.60;51.40
8188;DHT22;4135;49.184;9.722;2023-04-25T12:18:31;20.50;51.40
8188;DHT22;4135;49.184;9.722;2023-04-25T12:21:05;20.60;51.50
8188;DHT22;4135;49.184;9.722;2023-04-25T12:23:38;20.60;51.50
8188;DHT22;4135;49.184;9.722;2023-04-25T12:26:08;20.60;51.50
8188;DHT22;4135;49.184;9.722;2023-04-25T12:28:38;20.60;51.50
8188;DHT22;4135;49.184;9.722;2023-04-25T12:31:07;20.60;51.50
8188;DHT22;4135;49.184;9.722;2023-04-25T12:33:38;20.60;51.60
8188;DHT22;4135;49.184;9.722;2023-04-25T12:36:09;20.60;51.60
8188;DHT22;4135;49.184;9.722;2023-04-25T12:38:41;20.60;51.60
8188;DHT22;4135;49.184;9.722;2023-04-25T12:41:11;20.50;51.60
8188;DHT22;4135;49.184;9.722;2023-04-25T12:43:40;20.50;51.60
8188;DHT22;4135;49.184;9.722;2023-04-25T12:46:10;20.50;51.60
8188;DHT22;4135;49.184;9.722;2023-04-25T12:48:39;20.50;51.70
8188;DHT22;4135;49.184;9.722;2023-04-25T12:51:09;20.50;51.70
8188;DHT22;4135;49.184;9.722;2023-04-25T12:53:39;20.50;51.70
8188;DHT22;4135;49.184;9.722;2023-04-25T12:56:09;20.50;51.70
8188;DHT22;4135;49.184;9.722;2023-04-25T12:58:40;20.50;51.70
8188;DHT22;4135;49.184;9.722;2023-04-25T13:01:09;20.40;51.60
8188;DHT22;4135;49.184;9.722;2023-04-25T13:03:39;20.40;51.60
8188;DHT22;4135;49.184;9.722;2023-04-25T13:06:09;20.40;51.60
8188;DHT22;4135;49.184;9.722;2023-04-25T13:08:39;20.40;51.50
8188;DHT22;4135;49.184;9.722;2023-04-25T13:11:10;20.40;51.50
8188;DHT22;4135;49.184;9.722;2023-04-25T13:13:41;20.40;51.50
8188;DHT22;4135;49.184;9.722;2023-04-25T13:16:10;20.40;51.50
8188;DHT22;4135;49.184;9.722;2023-04-25T13:18:42;20.40;51.50
8188;DHT22;4135;49.184;9.722;2023-04-25T13:21:12;20.40;51.50
8188;DHT22;4135;49.184;9.722;2023-04-25T13:23:41;20.40;51.50
8188;DHT22;4135;49.184;9.722;2023-04-25T13:26:15;20.30;51.50
8188;DHT22;4135;49.184;9.722;2023-04-25T13:28:45;20.40;51.50
8188;DHT22;4135;49.184;9.722;2023-04-25T13:31:14;20.40;51.50
8188;DHT22;4135;49.184;9.722;2023-04-25T13:33:44;20.40;51.60
8188;DHT22;4135;49.184;9.722;2023-04-25T13:36:14;20.40;51.70
8188;DHT22;4135;49.184;9.722;2023-04-25T13:38:44;20.40;51.70
8188;DHT22;4135;49.184;9.722;2023-04-25T13:41:16;20.40;51.70
8188;DHT22;4135;49.184;9.722;2023-04-25T13:43:47;20.40;51.60
8188;DHT22;4135;49.184;9.722;2023-04-25T13:46:17;20.40;51.60
8188;DHT22;4135;49.184;9.722;2023-04-25T13:48:47;20.40;52.20
8188;DHT22;4135;49.184;9.722;2023-04-25T13:51:17;20.40;51.60
8188;DHT22;4135;49.184;9.722;2023-04-25T13:53:47;20.40;51.70
8188;DHT22;4135;49.184;9.722;2023-04-25T13:56:17;20.40;51.60
8188;DHT22;4135;49.184;9.722;2023-04-25T13:58:50;20.40;51.70
8188;DHT22;4135;49.184;9.722;2023-04-25T14:01:20;20.40;51.70
8188;DHT22;4135;49.184;9.722;2023-04-25T14:03:50;20.40;51.70
8188;DHT22;4135;49.184;9.722;2023-04-25T14:06:20;21.00;52.20
8188;DHT22;4135;49.184;9.722;2023-04-25T14:08:52;20.40;51.70
8188;DHT22;4135;49.184;9.722;2023-04-25T14:11:21;20.40;51.70
8188;DHT22;4135;49.184;9.722;2023-04-25T14:13:51;20.40;51.70
8188;DHT22;4135;49.184;9.722;2023-04-25T14:16:20;20.40;51.70
8188;DHT22;4135;49.184;9.722;2023-04-25T14:18:50;20.40;51.70
8188;DHT22;4135;49.184;9.722;2023-04-25T14:21:20;20.40;51.70
8188;DHT22;4135;49.184;9.722;2023-04-25T14:23:50;20.40;51.80
8188;DHT22;4135;49.184;9.722;2023-04-25T14:26:19;20.40;51.80
8188;DHT22;4135;49.184;9.722;2023-04-25T14:28:51;20.40;51.80
8188;DHT22;4135;49.184;9.722;2023-04-25T14:31:21;20.40;51.80
8188;DHT22;4135;49.184;9.722;2023-04-25T14:33:50;20.40;51.80
8188;DHT22;4135;49.184;9.722;2023-04-25T14:36:20;20.50;51.90
8188;DHT22;4135;49.184;9.722;2023-04-25T14:38:50;20.50;51.80
8188;DHT22;4135;49.184;9.722;2023-04-25T14:41:19;20.50;51.80
8188;DHT22;4135;49.184;9.722;2023-04-25T14:43:49;20.50;51.80
8188;DHT22;4135;49.184;9.722;2023-04-25T14:46:19;20.50;51.80
8188;DHT22;4135;49.184;9.722;2023-04-25T14:48:50;20.50;51.80
8188;DHT22;4135;49.184;9.722;2023-04-25T14:51:19;20.50;51.90
8188;DHT22;4135;49.184;9.722;2023-04-25T14:53:49;20.50;51.90
8188;DHT22;4135;49.184;9.722;2023-04-25T14:56:19;20.50;51.90
8188;DHT22;4135;49.184;9.722;2023-04-25T14:58:49;20.50;52.00
8188;DHT22;4135;49.184;9.722;2023-04-25T15:01:19;20.50;52.00
8188;DHT22;4135;49.184;9.722;2023-04-25T15:03:50;20.50;52.00
8188;DHT22;4135;49.184;9.722;2023-04-25T15:06:20;20.50;52.10
8188;DHT22;4135;49.184;9.722;2023-04-25T15:08:49;20.50;52.10
8188;DHT22;4135;49.184;9.722;2023-04-25T15:11:19;20.50;52.10
8188;DHT22;4135;49.184;9.722;2023-04-25T15:13:49;20.50;52.40
8188;DHT22;4135;49.184;9.722;2023-04-25T15:16:19;20.50;52.10
8188;DHT22;4135;49.184;9.722;2023-04-25T15:18:49;20.50;52.20
8188;DHT22;4135;49.184;9.722;2023-04-25T15:21:18;20.50;52.10
8188;DHT22;4135;49.184;9.722;2023-04-25T15:23:48;20.50;52.20
8188;DHT22;4135;49.184;9.722;2023-04-25T15:26:17;20.50;52.20
8188;DHT22;4135;49.184;9.722;2023-04-25T15:28:47;20.50;52.10
8188;DHT22;4135;49.184;9.722;2023-04-25T15:31:18;20.50;52.10
8188;DHT22;4135;49.184;9.722;2023-04-25T15:33:47;20.50;52.20
8188;DHT22;4135;49.184;9.722;2023-04-25T15:36:17;20.50;52.20
8188;DHT22;4135;49.184;9.722;2023-04-25T15:38:47;20.50;52.20
8188;DHT22;4135;49.184;9.722;2023-04-25T15:41:17;20.50;52.20
8188;DHT22;4135;49.184;9.722;2023-04-25T15:43:47;20.50;52.20
8188;DHT22;4135;49.184;9.722;2023-04-25T15:46:18;20.50;52.20
8188;DHT22;4135;49.184;9.722;2023-04-25T15:48:47;20.50;52.20
8188;DHT22;4135;49.184;9.722;2023-04-25T15:51:17;20.50;52.20
8188;DHT22;4135;49.184;9.722;2023-04-25T15:53:46;20.40;52.20
8188;DHT22;4135;49.184;9.722;2023-04-25T15:56:16;20.40;52.20
8188;DHT22;4135;49.184;9.722;2023-04-25T15:58:46;20.40;52.20
8188;DHT22;4135;49.184;9.722;2023-04-25T16:01:16;20.40;52.10
8188;DHT22;4135;49.184;9.722;2023-04-25T16:03:45;20.40;52.00
8188;DHT22;4135;49.184;9.722;2023-04-25T16:06:15;20.30;52.00
8188;DHT22;4135;49.184;9.722;2023-04-25T16:08:44;20.30;51.90
8188;DHT22;4135;49.184;9.722;2023-04-25T16:11:14;20.40;51.90
8188;DHT22;4135;49.184;9.722;2023-04-25T16:13:44;20.40;51.80
8188;DHT22;4135;49.184;9.722;2023-04-25T16:16:14;20.40;51.70
8188;DHT22;4135;49.184;9.722;2023-04-25T16:18:44;20.40;51.70
8188;DHT22;4135;49.184;9.722;2023-04-25T16:21:13;20.30;51.60
8188;DHT22;4135;49.184;9.722;2023-04-25T16:23:44;20.40;51.70
8188;DHT22;4135;49.184;9.722;2023-04-25T16:26:14;20.30;51.50
8188;DHT22;4135;49.184;9.722;2023-04-25T16:28:43;20.30;51.50